createdAt,value
2023-04-18T00:00:16.147Z,85.9549
2023-04-18T00:01:16.630Z,85.9557
2023-04-18T00:02:17.349Z,85.6385
2023-04-18T00:03:18.590Z,85.8449
2023-04-18T00:04:21.079Z,85.9621
2023-04-18T00:05:22.366Z,85.2821
2023-04-18T00:06:22.875Z,85.6114
2023-04-18T00:07:23.382Z,84.9475
2023-04-18T00:08:23.864Z,85.7220
2023-04-18T00:09:24.473Z,85.3936
2023-04-18T00:10:24.948Z,84.8913
2023-04-18T00:11:25.499Z,84.9841
2023-04-18T00:12:26.022Z,84.8780
2023-04-18T00:13:26.488Z,84.8386
2023-04-18T00:14:27.005Z,84.9113
2023-04-18T00:15:27.439Z,84.7399
2023-04-18T00:16:28.155Z,84.9559
2023-04-18T00:17:28.676Z,84.5939
2023-04-18T00:18:29.169Z,85.0630
2023-04-18T00:19:29.642Z,84.7171
2023-04-18T00:20:30.130Z,84.6041
2023-04-18T00:21:30.568Z,84.6669
2023-04-18T00:22:31.037Z,85.2265
2023-04-18T00:23:31.659Z,84.8108
2023-04-18T00:24:32.148Z,85.1456
2023-04-18T00:25:32.696Z,84.5908
2023-04-18T00:26:33.120Z,84.7034
2023-04-18T00:27:33.669Z,84.9138
2023-04-18T00:28:34.209Z,84.8568
2023-04-18T00:29:35.728Z,84.8574
2023-04-18T00:30:36.319Z,84.3903
2023-04-18T00:31:36.824Z,84.9949
2023-04-18T00:32:37.344Z,84.6482
2023-04-18T00:33:37.842Z,84.6351
2023-04-18T00:34:38.332Z,85.2821
2023-04-18T00:35:38.813Z,85.4885
2023-04-18T00:36:39.291Z,85.1356
2023-04-18T00:37:39.746Z,84.6423
2023-04-18T00:38:40.309Z,85.5204
2023-04-18T00:39:40.879Z,84.6131
2023-04-18T00:40:41.443Z,84.7940
2023-04-18T00:41:41.967Z,85.5907
2023-04-18T00:42:42.591Z,84.7247
2023-04-18T00:43:43.280Z,85.0350
2023-04-18T00:44:43.810Z,85.1937
2023-04-18T00:45:44.286Z,84.3774
2023-04-18T00:46:44.803Z,84.8791
2023-04-18T00:47:45.398Z,84.4986
2023-04-18T00:48:45.886Z,84.3771
2023-04-18T00:49:46.373Z,84.8767
2023-04-18T00:50:46.852Z,84.8109
2023-04-18T00:51:47.413Z,84.9475
2023-04-18T00:52:47.940Z,85.5372
2023-04-18T00:53:48.575Z,85.6652
2023-04-18T00:54:49.242Z,85.2725
2023-04-18T00:55:49.744Z,85.1114
2023-04-18T00:56:50.207Z,85.0404
2023-04-18T00:57:50.754Z,85.2922
2023-04-18T00:58:51.196Z,85.0512
2023-04-18T00:59:51.693Z,84.8673
2023-04-18T01:00:52.164Z,84.7186
2023-04-18T01:01:52.741Z,85.0501
2023-04-18T01:02:54.054Z,85.1136
2023-04-18T01:03:55.088Z,85.0629
2023-04-18T01:04:55.805Z,84.8309
2023-04-18T01:05:56.413Z,85.1442
2023-04-18T01:06:56.891Z,85.4628
2023-04-18T01:07:57.340Z,84.7484
2023-04-18T01:08:57.813Z,85.1733
2023-04-18T01:09:58.275Z,84.7808
2023-04-18T01:10:58.705Z,85.7538
2023-04-18T01:11:59.219Z,85.4365
2023-04-18T01:12:59.652Z,84.8468
2023-04-18T01:14:00.113Z,85.0153
2023-04-18T01:15:00.636Z,85.1002
2023-04-18T01:16:01.134Z,85.5222
2023-04-18T01:17:01.587Z,85.2117
2023-04-18T01:18:02.113Z,85.0993
2023-04-18T01:19:02.660Z,84.1008
2023-04-18T01:20:03.209Z,84.5820
2023-04-18T01:21:03.665Z,84.9481
2023-04-18T01:22:04.217Z,84.9027
2023-04-18T01:23:04.652Z,85.6886
2023-04-18T01:24:05.144Z,85.2269
2023-04-18T01:25:05.608Z,85.0916
2023-04-18T01:26:06.025Z,85.2189
2023-04-18T01:27:06.510Z,85.1942
2023-04-18T01:28:06.985Z,85.1712
2023-04-18T01:29:07.438Z,84.9080
2023-04-18T01:30:07.914Z,85.0028
2023-04-18T01:31:08.395Z,85.4666
2023-04-18T01:32:08.850Z,84.6998
2023-04-18T01:33:09.341Z,84.8355
2023-04-18T01:34:09.850Z,84.9735
2023-04-18T01:35:10.324Z,85.0573
2023-04-18T01:36:10.831Z,84.9248
2023-04-18T01:37:11.396Z,84.6857
2023-04-18T01:38:11.881Z,85.1053
2023-04-18T01:39:12.443Z,85.3826
2023-04-18T01:40:12.904Z,85.6359
2023-04-18T01:41:13.426Z,85.4343
2023-04-18T01:42:13.894Z,85.9853
2023-04-18T01:43:14.344Z,85.7642
2023-04-18T01:44:15.299Z,84.8870
2023-04-18T01:45:16.118Z,84.6200
2023-04-18T01:46:16.617Z,84.9297
2023-04-18T01:47:17.083Z,85.4015
2023-04-18T01:48:17.512Z,85.5481
2023-04-18T01:49:18.011Z,84.8898
2023-04-18T01:50:18.556Z,85.0545
2023-04-18T01:51:19.118Z,84.9507
2023-04-18T01:52:19.628Z,84.7702
2023-04-18T01:53:20.059Z,84.9115
2023-04-18T01:54:20.597Z,85.1886
2023-04-18T01:55:21.112Z,84.7752
2023-04-18T01:56:21.768Z,85.0960
2023-04-18T01:57:22.549Z,84.9766
2023-04-18T01:58:23.344Z,85.5894
2023-04-18T01:59:23.829Z,85.5407
2023-04-18T02:00:24.384Z,85.3512
2023-04-18T02:01:25.039Z,85.7047
2023-04-18T02:02:25.849Z,85.3566
2023-04-18T02:03:26.868Z,85.4629
2023-04-18T02:04:27.743Z,84.7261
2023-04-18T02:05:28.278Z,84.9599
2023-04-18T02:06:28.804Z,85.0621
2023-04-18T02:07:29.361Z,85.2431
2023-04-18T02:08:29.862Z,85.1859
2023-04-18T02:09:30.470Z,85.9190
2023-04-18T02:10:30.961Z,86.2269
2023-04-18T02:11:31.560Z,85.3301
2023-04-18T02:12:32.135Z,85.8701
2023-04-18T02:13:32.715Z,86.2281
2023-04-18T02:14:33.245Z,86.2707
2023-04-18T02:15:33.833Z,86.1058
2023-04-18T02:16:34.425Z,86.0818
2023-04-18T02:17:35.100Z,85.5064
2023-04-18T02:18:35.745Z,85.7269
2023-04-18T02:19:36.275Z,85.4190
2023-04-18T02:20:36.806Z,85.2618
2023-04-18T02:21:37.304Z,85.4698
2023-04-18T02:22:37.886Z,85.5008
2023-04-18T02:23:38.403Z,85.8487
2023-04-18T02:24:38.969Z,85.7363
2023-04-18T02:25:39.500Z,86.1181
2023-04-18T02:26:40.073Z,86.0781
2023-04-18T02:27:40.621Z,85.8425
2023-04-18T02:28:41.146Z,86.0348
2023-04-18T02:29:41.679Z,85.9171
2023-04-18T02:30:42.187Z,86.0261
2023-04-18T02:31:42.864Z,86.1534
2023-04-18T02:32:43.426Z,85.9930
2023-04-18T02:33:43.949Z,85.5531
2023-04-18T02:34:44.522Z,86.3536
2023-04-18T02:35:45.094Z,86.4173
2023-04-18T02:36:45.673Z,85.8615
2023-04-18T02:37:46.262Z,86.4879
2023-04-18T02:38:47.076Z,85.9662
2023-04-18T02:39:47.655Z,85.7226
2023-04-18T02:40:48.208Z,85.8313
2023-04-18T02:41:48.789Z,86.4903
2023-04-18T02:42:49.299Z,86.5495
2023-04-18T02:43:49.848Z,86.1137
2023-04-18T02:44:50.344Z,86.0532
2023-04-18T02:45:50.976Z,86.5131
2023-04-18T02:46:51.624Z,86.2319
2023-04-18T02:47:57.011Z,86.2665
2023-04-18T02:48:52.771Z,86.2442
2023-04-18T02:49:53.337Z,86.1537
2023-04-18T02:50:53.927Z,86.6671
2023-04-18T02:51:54.524Z,86.0711
2023-04-18T02:52:55.082Z,86.5107
2023-04-18T02:53:55.636Z,86.9269
2023-04-18T02:54:56.212Z,86.4544
2023-04-18T02:55:56.735Z,86.2680
2023-04-18T02:56:57.423Z,86.6103
2023-04-18T02:57:57.949Z,86.0336
2023-04-18T02:58:58.495Z,86.1111
2023-04-18T02:59:59.035Z,86.0766
2023-04-18T03:00:59.688Z,86.3359
2023-04-18T03:02:00.333Z,86.0343
2023-04-18T03:03:00.967Z,86.4339
2023-04-18T03:04:01.462Z,86.4880
2023-04-18T03:05:02.020Z,85.9160
2023-04-18T03:06:02.565Z,85.8703
2023-04-18T03:07:03.154Z,86.2225
2023-04-18T03:08:03.831Z,86.5953
2023-04-18T03:09:04.636Z,86.0543
2023-04-18T03:10:05.205Z,86.3813
2023-04-18T03:11:05.682Z,86.5867
2023-04-18T03:12:06.401Z,85.8835
2023-04-18T03:13:06.907Z,86.2079
2023-04-18T03:14:07.422Z,85.7569
2023-04-18T03:15:08.014Z,85.6410
2023-04-18T03:16:08.706Z,86.1543
2023-04-18T03:17:09.219Z,86.2261
2023-04-18T03:18:09.774Z,86.5260
2023-04-18T03:19:10.351Z,86.7391
2023-04-18T03:20:10.875Z,86.1541
2023-04-18T03:21:11.467Z,86.4498
2023-04-18T03:22:12.022Z,86.0634
2023-04-18T03:23:12.561Z,85.8353
2023-04-18T03:24:14.353Z,86.0996
2023-04-18T03:25:15.142Z,86.1972
2023-04-18T03:26:15.676Z,86.0199
2023-04-18T03:27:16.216Z,86.5512
2023-04-18T03:28:16.785Z,86.6225
2023-04-18T03:29:17.380Z,86.3937
2023-04-18T03:30:17.889Z,86.3369
2023-04-18T03:31:18.583Z,86.6734
2023-04-18T03:32:19.320Z,86.3333
2023-04-18T03:33:19.973Z,85.9977
2023-04-18T03:34:20.471Z,86.4141
2023-04-18T03:35:20.992Z,86.2976
2023-04-18T03:36:21.548Z,86.6971
2023-04-18T03:37:22.123Z,86.7746
2023-04-18T03:38:22.896Z,86.6438
2023-04-18T03:39:23.440Z,85.9834
2023-04-18T03:40:24.012Z,85.9597
2023-04-18T03:41:24.537Z,86.0304
2023-04-18T03:42:25.192Z,86.4319
2023-04-18T03:43:25.724Z,86.3537
2023-04-18T03:44:26.306Z,86.5250
2023-04-18T03:45:26.832Z,86.6256
2023-04-18T03:46:27.398Z,85.7284
2023-04-18T03:47:27.940Z,85.8368
2023-04-18T03:48:28.461Z,86.0133
2023-04-18T03:49:28.983Z,86.2638
2023-04-18T03:50:29.568Z,86.1384
2023-04-18T03:51:30.117Z,85.8094
2023-04-18T03:52:30.713Z,86.6640
2023-04-18T03:53:31.221Z,86.5394
2023-04-18T03:54:31.721Z,85.9138
2023-04-18T03:55:32.280Z,85.9693
2023-04-18T03:56:32.818Z,86.5272
2023-04-18T03:57:33.440Z,86.1521
2023-04-18T03:58:33.971Z,85.6503
2023-04-18T03:59:34.512Z,86.1833
2023-04-18T04:00:35.068Z,85.8655
2023-04-18T04:01:35.695Z,85.9756
2023-04-18T04:02:36.703Z,85.6983
2023-04-18T04:03:37.781Z,86.4341
2023-04-18T04:04:38.638Z,86.1516
2023-04-18T04:05:39.174Z,85.7898
2023-04-18T04:06:39.756Z,85.6350
2023-04-18T04:07:40.385Z,86.2152
2023-04-18T04:08:40.901Z,85.8016
2023-04-18T04:09:41.485Z,85.3720
2023-04-18T04:10:41.992Z,85.8187
2023-04-18T04:11:42.585Z,85.7400
2023-04-18T04:12:43.140Z,85.7220
2023-04-18T04:13:43.711Z,86.1069
2023-04-18T04:14:44.332Z,85.9427
2023-04-18T04:15:44.960Z,85.9422
2023-04-18T04:16:45.607Z,85.9938
2023-04-18T04:17:46.483Z,85.5991
2023-04-18T04:18:47.032Z,86.2487
2023-04-18T04:19:47.574Z,85.9150
2023-04-18T04:20:48.281Z,85.6499
2023-04-18T04:21:48.831Z,85.4923
2023-04-18T04:22:49.395Z,85.8797
2023-04-18T04:23:50.079Z,85.8007
2023-04-18T04:24:50.689Z,85.6120
2023-04-18T04:25:51.274Z,85.7509
2023-04-18T04:26:51.917Z,85.3170
2023-04-18T04:27:52.481Z,86.4593
2023-04-18T04:28:53.079Z,85.8269
2023-04-18T04:29:53.594Z,85.9753
2023-04-18T04:30:54.154Z,86.1339
2023-04-18T04:31:54.802Z,85.9275
2023-04-18T04:32:55.470Z,85.7323
2023-04-18T04:33:56.083Z,86.1298
2023-04-18T04:34:56.690Z,85.8629
2023-04-18T04:35:57.323Z,85.7864
2023-04-18T04:36:57.880Z,86.1762
2023-04-18T04:37:58.475Z,86.5296
2023-04-18T04:38:59.020Z,86.3528
2023-04-18T04:39:59.588Z,86.0652
2023-04-18T04:41:00.111Z,85.8458
2023-04-18T04:42:01.081Z,85.8774
2023-04-18T04:43:01.676Z,85.7218
2023-04-18T04:44:02.287Z,85.6359
2023-04-18T04:45:02.895Z,85.4018
2023-04-18T04:46:03.491Z,85.9332
2023-04-18T04:47:04.149Z,86.0452
2023-04-18T04:48:04.766Z,85.5581
2023-04-18T04:49:05.298Z,86.3563
2023-04-18T04:50:05.853Z,86.4092
2023-04-18T04:51:06.428Z,86.7559
2023-04-18T04:52:06.943Z,85.9503
2023-04-18T04:53:07.555Z,85.9923
2023-04-18T04:54:08.084Z,86.0645
2023-04-18T04:55:08.670Z,86.1225
2023-04-18T04:56:09.438Z,85.9883
2023-04-18T04:57:10.060Z,85.4498
2023-04-18T04:58:10.578Z,85.8591
2023-04-18T04:59:11.096Z,86.6547
2023-04-18T05:00:11.614Z,86.1461
2023-04-18T05:01:12.246Z,86.6585
2023-04-18T05:02:13.012Z,86.1638
2023-04-18T05:03:14.072Z,86.4651
2023-04-18T05:04:16.079Z,86.6089
2023-04-18T05:05:17.093Z,86.3531
2023-04-18T05:06:17.693Z,86.1999
2023-04-18T05:07:18.284Z,86.7655
2023-04-18T05:08:18.904Z,85.8838
2023-04-18T05:09:19.511Z,85.8426
2023-04-18T05:10:20.069Z,85.9033
2023-04-18T05:11:20.722Z,86.2198
2023-04-18T05:12:21.234Z,85.9241
2023-04-18T05:13:21.822Z,85.9842
2023-04-18T05:14:22.412Z,86.7045
2023-04-18T05:15:23.055Z,86.2925
2023-04-18T05:16:23.788Z,86.8736
2023-04-18T05:17:24.392Z,86.2040
2023-04-18T05:18:25.047Z,86.4266
2023-04-18T05:19:25.627Z,85.8653
2023-04-18T05:20:26.395Z,85.9425
2023-04-18T05:21:26.929Z,85.8487
2023-04-18T05:22:27.540Z,86.3029
2023-04-18T05:23:28.128Z,86.7221
2023-04-18T05:24:28.719Z,86.3658
2023-04-18T05:25:29.296Z,86.4485
2023-04-18T05:26:29.826Z,86.0033
2023-04-18T05:27:30.386Z,85.4383
2023-04-18T05:28:31.061Z,86.1167
2023-04-18T05:29:31.641Z,86.2575
2023-04-18T05:30:32.334Z,86.2402
2023-04-18T05:31:32.964Z,86.2165
2023-04-18T05:32:33.538Z,85.9275
2023-04-18T05:33:34.064Z,86.3755
2023-04-18T05:34:38.940Z,85.8875
2023-04-18T05:35:35.027Z,85.5856
2023-04-18T05:36:35.620Z,86.1161
2023-04-18T05:37:36.259Z,85.5727
2023-04-18T05:38:36.895Z,86.0268
2023-04-18T05:39:37.483Z,86.0605
2023-04-18T05:40:38.162Z,86.0612
2023-04-18T05:41:38.702Z,85.5847
2023-04-18T05:42:39.318Z,85.5995
2023-04-18T05:43:40.180Z,85.7831
2023-04-18T05:44:41.572Z,85.9463
2023-04-18T05:45:42.150Z,85.8350
2023-04-18T05:46:42.939Z,85.9819
2023-04-18T05:47:43.540Z,86.0467
2023-04-18T05:48:44.211Z,85.9991
2023-04-18T05:49:44.805Z,85.8655
2023-04-18T05:50:45.443Z,85.6530
2023-04-18T05:51:46.078Z,85.8376
2023-04-18T05:52:46.623Z,86.2786
2023-04-18T05:53:47.211Z,86.0274
2023-04-18T05:54:47.783Z,85.6847
2023-04-18T05:55:48.344Z,85.7039
2023-04-18T05:56:49.085Z,86.0347
2023-04-18T05:57:49.923Z,85.5006
2023-04-18T05:58:50.540Z,86.1422
2023-04-18T05:59:51.115Z,85.8453
2023-04-18T06:00:51.684Z,85.4264
2023-04-18T06:01:52.451Z,85.4817
2023-04-18T06:02:53.689Z,85.4484
2023-04-18T06:03:54.999Z,85.9178
2023-04-18T06:04:56.382Z,85.8418
2023-04-18T06:05:57.453Z,85.5640
2023-04-18T06:06:58.388Z,85.5161
2023-04-18T06:07:58.984Z,85.7932
2023-04-18T06:08:59.614Z,85.8888
2023-04-18T06:10:00.120Z,85.3290
2023-04-18T06:11:00.647Z,85.5860
2023-04-18T06:12:01.195Z,85.3239
2023-04-18T06:13:01.772Z,85.6695
2023-04-18T06:14:02.480Z,85.5592
2023-04-18T06:15:03.107Z,85.6052
2023-04-18T06:16:03.782Z,85.9742
2023-04-18T06:17:04.326Z,85.3276
2023-04-18T06:18:05.061Z,84.8992
2023-04-18T06:19:05.650Z,85.2289
2023-04-18T06:20:06.216Z,85.0410
2023-04-18T06:21:06.769Z,85.3010
2023-04-18T06:22:07.297Z,85.1957
2023-04-18T06:23:07.838Z,84.8793
2023-04-18T06:24:08.402Z,84.4721
2023-04-18T06:25:08.996Z,84.8425
2023-04-18T06:26:09.525Z,85.3181
2023-04-18T06:27:30.231Z,84.8397
2023-04-18T06:28:10.546Z,85.0893
2023-04-18T06:29:11.175Z,84.8360
2023-04-18T06:30:11.732Z,85.1080
2023-04-18T06:31:12.549Z,85.4988
2023-04-18T06:32:13.080Z,85.1414
2023-04-18T06:33:13.655Z,84.6880
2023-04-18T06:34:14.832Z,84.5790
2023-04-18T06:35:15.630Z,84.8169
2023-04-18T06:36:16.174Z,85.0429
2023-04-18T06:37:16.704Z,84.7070
2023-04-18T06:38:17.306Z,84.9227
2023-04-18T06:39:17.925Z,84.9104
2023-04-18T06:40:18.521Z,84.8604
2023-04-18T06:41:19.067Z,84.8932
2023-04-18T06:42:22.927Z,84.8054
2023-04-18T06:43:21.228Z,84.7036
2023-04-18T06:44:21.792Z,84.7271
2023-04-18T06:45:22.343Z,85.4124
2023-04-18T06:46:23.383Z,85.1660
2023-04-18T06:47:23.978Z,85.0454
2023-04-18T06:48:24.507Z,84.9843
2023-04-18T06:49:26.992Z,84.5436
2023-04-18T06:50:25.172Z,84.3416
2023-04-18T06:51:25.722Z,84.4522
2023-04-18T06:52:26.235Z,84.9005
2023-04-18T06:53:26.754Z,84.8755
2023-04-18T06:54:27.409Z,85.0941
2023-04-18T06:55:27.981Z,84.5540
2023-04-18T06:56:28.497Z,84.4153
2023-04-18T06:57:29.010Z,84.2244
2023-04-18T06:58:29.566Z,84.5003
2023-04-18T06:59:30.451Z,84.4177
2023-04-18T07:00:30.980Z,84.5675
2023-04-18T07:01:31.695Z,84.3779
2023-04-18T07:02:32.666Z,84.5175
2023-04-18T07:03:34.416Z,84.7618
2023-04-18T07:04:35.102Z,85.0764
2023-04-18T07:05:35.713Z,85.1590
2023-04-18T07:06:36.350Z,84.6138
2023-04-18T07:07:36.914Z,84.4631
2023-04-18T07:08:37.632Z,84.3607
2023-04-18T07:09:38.266Z,84.0900
2023-04-18T07:10:38.829Z,84.2821
2023-04-18T07:11:39.408Z,84.1883
2023-04-18T07:12:41.015Z,84.1942
2023-04-18T07:13:41.621Z,84.5600
2023-04-18T07:14:42.245Z,84.2761
2023-04-18T07:15:42.786Z,84.0401
2023-04-18T07:16:43.464Z,83.8985
2023-04-18T07:17:44.036Z,83.9885
2023-04-18T07:18:44.635Z,83.9727
2023-04-18T07:19:45.250Z,83.9766
2023-04-18T07:20:45.816Z,83.8360
2023-04-18T07:21:46.536Z,83.7385
2023-04-18T07:22:47.133Z,83.9147
2023-04-18T07:23:47.729Z,83.7037
2023-04-18T07:24:48.352Z,83.3292
2023-04-18T07:25:48.952Z,83.3945
2023-04-18T07:26:49.490Z,83.0491
2023-04-18T07:27:50.058Z,83.0451
2023-04-18T07:28:50.641Z,82.9354
2023-04-18T07:29:51.238Z,83.3380
2023-04-18T07:30:51.882Z,83.5314
2023-04-18T07:31:52.453Z,83.5165
2023-04-18T07:32:53.183Z,83.3177
2023-04-18T07:33:53.704Z,83.0638
2023-04-18T07:34:54.302Z,82.7715
2023-04-18T07:35:54.847Z,82.5995
2023-04-18T07:36:55.424Z,82.6896
2023-04-18T07:37:56.001Z,82.8099
2023-04-18T07:38:56.557Z,82.7730
2023-04-18T07:39:57.102Z,82.5309
2023-04-18T07:40:57.677Z,82.6989
2023-04-18T07:41:58.208Z,82.6996
2023-04-18T07:42:58.768Z,82.7937
2023-04-18T07:43:59.376Z,82.8624
2023-04-18T07:44:59.983Z,82.7576
2023-04-18T07:46:00.608Z,83.3259
2023-04-18T07:47:01.122Z,83.1470
2023-04-18T07:48:01.813Z,83.2966
2023-04-18T07:49:02.537Z,82.4525
2023-04-18T07:50:03.085Z,82.3059
2023-04-18T07:51:03.567Z,82.3593
2023-04-18T07:52:04.151Z,82.1311
2023-04-18T07:53:04.677Z,81.6973
2023-04-18T07:54:05.222Z,81.8431
2023-04-18T07:55:05.837Z,81.9942
2023-04-18T07:56:06.398Z,81.1663
2023-04-18T07:57:06.975Z,81.0083
2023-04-18T07:58:07.492Z,81.3368
2023-04-18T07:59:08.090Z,80.7701
2023-04-18T08:00:08.644Z,80.7194
2023-04-18T08:01:09.235Z,80.6399
2023-04-18T08:02:09.860Z,80.8454
2023-04-18T08:03:10.663Z,80.4891
2023-04-18T08:04:12.027Z,80.9026
2023-04-18T08:05:12.930Z,80.2433
2023-04-18T08:06:13.454Z,79.6565
2023-04-18T08:07:13.979Z,79.6318
2023-04-18T08:08:14.536Z,79.9550
2023-04-18T08:09:16.021Z,79.3689
2023-04-18T08:10:16.809Z,79.3821
2023-04-18T08:11:17.367Z,79.2378
2023-04-18T08:12:17.891Z,79.7649
2023-04-18T08:13:18.417Z,79.5807
2023-04-18T08:14:19.025Z,79.7988
2023-04-18T08:15:19.508Z,78.8791
2023-04-18T08:16:20.091Z,79.6907
2023-04-18T08:17:20.707Z,78.6507
2023-04-18T08:18:21.251Z,77.8165
2023-04-18T08:19:21.753Z,77.5475
2023-04-18T08:20:22.366Z,77.8465
2023-04-18T08:21:23.046Z,77.4679
2023-04-18T08:22:23.551Z,77.3195
2023-04-18T08:23:24.040Z,77.6386
2023-04-18T08:24:24.543Z,77.1157
2023-04-18T08:25:25.074Z,77.4528
2023-04-18T08:26:25.582Z,78.0805
2023-04-18T08:27:26.116Z,77.9789
2023-04-18T08:28:26.591Z,78.1678
2023-04-18T08:29:27.126Z,78.4291
2023-04-18T08:30:27.676Z,78.4085
2023-04-18T08:31:28.314Z,78.9635
2023-04-18T08:32:28.963Z,79.3523
2023-04-18T08:33:29.456Z,79.6590
2023-04-18T08:34:30.056Z,79.6185
2023-04-18T08:35:30.692Z,79.4242
2023-04-18T08:36:31.276Z,79.3903
2023-04-18T08:37:31.806Z,79.4838
2023-04-18T08:38:32.335Z,79.5170
2023-04-18T08:39:32.890Z,79.6985
2023-04-18T08:40:33.477Z,79.6878
2023-04-18T08:41:34.007Z,79.6132
2023-04-18T08:42:34.536Z,79.3803
2023-04-18T08:43:35.029Z,79.3458
2023-04-18T08:44:35.535Z,79.3170
2023-04-18T08:45:36.343Z,78.8315
2023-04-18T08:46:36.833Z,78.7069
2023-04-18T08:47:37.480Z,78.4827
2023-04-18T08:48:38.062Z,78.7013
2023-04-18T08:49:38.576Z,79.0123
2023-04-18T08:50:39.160Z,78.8978
2023-04-18T08:51:39.695Z,78.8543
2023-04-18T08:52:40.253Z,78.5653
2023-04-18T08:53:40.805Z,78.0716
2023-04-18T08:54:41.295Z,77.8118
2023-04-18T08:55:41.836Z,77.2924
2023-04-18T08:56:42.356Z,77.4935
2023-04-18T08:57:42.886Z,77.1596
2023-04-18T08:58:43.441Z,77.5852
2023-04-18T08:59:47.180Z,77.9792
2023-04-18T09:00:44.985Z,77.8685
2023-04-18T09:01:45.613Z,77.9480
2023-04-18T09:02:46.293Z,78.3595
2023-04-18T09:03:46.902Z,78.0924
2023-04-18T09:04:47.477Z,77.5687
2023-04-18T09:05:48.028Z,77.5812
2023-04-18T09:06:48.540Z,77.2467
2023-04-18T09:07:49.080Z,77.3862
2023-04-18T09:08:49.626Z,77.0146
2023-04-18T09:09:50.212Z,76.6648
2023-04-18T09:10:50.814Z,76.3035
2023-04-18T09:11:51.359Z,75.6740
2023-04-18T09:12:51.854Z,75.4969
2023-04-18T09:13:52.412Z,75.3475
2023-04-18T09:14:52.968Z,74.8571
2023-04-18T09:15:53.533Z,75.0888
2023-04-18T09:16:54.292Z,74.8564
2023-04-18T09:17:54.831Z,75.1047
2023-04-18T09:18:55.326Z,75.3660
2023-04-18T09:19:55.843Z,75.9190
2023-04-18T09:20:56.409Z,76.7858
2023-04-18T09:21:56.945Z,77.4807
2023-04-18T09:22:57.534Z,77.5152
2023-04-18T09:23:58.044Z,77.1107
2023-04-18T09:24:58.600Z,77.4133
2023-04-18T09:25:59.154Z,77.2107
2023-04-18T09:26:59.677Z,77.0331
2023-04-18T09:28:00.298Z,76.6621
2023-04-18T09:29:00.891Z,76.4384
2023-04-18T09:30:01.420Z,76.1307
2023-04-18T09:31:02.192Z,76.0280
2023-04-18T09:32:02.723Z,76.3084
2023-04-18T09:33:04.227Z,75.7543
2023-04-18T09:34:04.765Z,75.4504
2023-04-18T09:35:05.536Z,74.9781
2023-04-18T09:36:07.137Z,75.2099
2023-04-18T09:37:07.806Z,75.3236
2023-04-18T09:38:08.396Z,75.2875
2023-04-18T09:39:08.959Z,75.5692
2023-04-18T09:40:09.658Z,75.8122
2023-04-18T09:41:10.284Z,75.8931
2023-04-18T09:42:10.856Z,76.1101
2023-04-18T09:43:11.343Z,75.8236
2023-04-18T09:44:15.824Z,75.7960
2023-04-18T09:45:14.209Z,74.9298
2023-04-18T09:46:14.841Z,75.2767
2023-04-18T09:47:16.343Z,74.8307
2023-04-18T09:48:16.813Z,74.4982
2023-04-18T09:49:18.657Z,74.6519
2023-04-18T09:50:19.336Z,75.5008
2023-04-18T09:51:19.936Z,76.1970
2023-04-18T09:52:20.453Z,76.3205
2023-04-18T09:53:21.645Z,75.9169
2023-04-18T09:54:22.177Z,76.0634
2023-04-18T09:55:22.898Z,75.9150
2023-04-18T09:56:23.680Z,76.2989
2023-04-18T09:57:24.274Z,76.0073
2023-04-18T09:58:24.771Z,75.8483
2023-04-18T09:59:25.356Z,75.6707
2023-04-18T10:00:25.899Z,75.1065
2023-04-18T10:01:26.574Z,74.0889
2023-04-18T10:02:27.409Z,74.1023
2023-04-18T10:03:28.182Z,74.0400
2023-04-18T10:04:28.884Z,73.6795
2023-04-18T10:05:29.537Z,73.2885
2023-04-18T10:06:30.118Z,73.1787
2023-04-18T10:07:30.613Z,72.9758
2023-04-18T10:08:31.173Z,72.5316
2023-04-18T10:09:31.736Z,71.7392
2023-04-18T10:10:32.412Z,71.8535
2023-04-18T10:11:32.942Z,72.3483
2023-04-18T10:12:33.445Z,72.4269
2023-04-18T10:13:33.963Z,72.6150
2023-04-18T10:14:34.482Z,72.5330
2023-04-18T10:15:35.096Z,73.0512
2023-04-18T10:16:36.860Z,72.2868
2023-04-18T10:17:37.433Z,71.0480
2023-04-18T10:18:38.205Z,71.4662
2023-04-18T10:19:38.751Z,71.9188
2023-04-18T10:20:39.228Z,72.1709
2023-04-18T10:21:39.789Z,72.1698
2023-04-18T10:22:40.264Z,72.7548
2023-04-18T10:23:40.904Z,70.9574
2023-04-18T10:24:41.412Z,69.8246
2023-04-18T10:25:43.421Z,69.5952
2023-04-18T10:27:19.174Z,69.9622
2023-04-18T10:28:20.123Z,70.1076
2023-04-18T10:29:21.043Z,69.8118
2023-04-18T10:30:22.180Z,70.8912
2023-04-18T10:31:23.326Z,71.9162
2023-04-18T10:32:24.403Z,72.6602
2023-04-18T10:33:32.388Z,72.4784
2023-04-18T10:34:27.169Z,72.7832
2023-04-18T10:35:28.185Z,73.3277
2023-04-18T10:36:29.205Z,73.5766
2023-04-18T10:37:30.185Z,73.4308
2023-04-18T10:38:31.270Z,73.8749
2023-04-18T10:39:32.215Z,73.6948
2023-04-18T10:40:33.237Z,73.5071
2023-04-18T10:41:34.169Z,73.1859
2023-04-18T10:42:35.156Z,72.7760
2023-04-18T10:43:36.172Z,72.5566
2023-04-18T10:44:37.136Z,72.8469
2023-04-18T10:45:38.120Z,72.7305
2023-04-18T10:46:39.179Z,72.0663
2023-04-18T10:47:40.636Z,71.9364
2023-04-18T10:48:41.654Z,72.0824
2023-04-18T10:49:42.620Z,71.8975
2023-04-18T10:50:43.576Z,71.5255
2023-04-18T10:51:44.530Z,71.2199
2023-04-18T10:52:45.467Z,71.1259
2023-04-18T10:53:46.418Z,71.0539
2023-04-18T10:54:47.291Z,72.0563
2023-04-18T10:55:48.208Z,71.9033
2023-04-18T10:56:49.130Z,71.8598
2023-04-18T10:57:50.096Z,72.0135
2023-04-18T10:58:51.091Z,71.9729
2023-04-18T10:59:52.100Z,72.0682
2023-04-18T11:00:53.169Z,70.9231
2023-04-18T11:01:54.096Z,70.9530
2023-04-18T11:02:55.424Z,69.9336
2023-04-18T11:03:56.688Z,69.8355
2023-04-18T11:04:57.646Z,70.5516
2023-04-18T11:05:59.016Z,70.0104
2023-04-18T11:07:00.086Z,69.9557
2023-04-18T11:08:01.252Z,70.1308
2023-04-18T11:09:02.625Z,70.2591
2023-04-18T11:10:03.554Z,70.9955
2023-04-18T11:11:04.492Z,71.3570
2023-04-18T11:12:05.432Z,71.5487
2023-04-18T11:13:06.376Z,71.0551
2023-04-18T11:14:07.541Z,71.1333
2023-04-18T11:15:08.543Z,71.4776
2023-04-18T11:16:09.459Z,71.5264
2023-04-18T11:17:10.384Z,70.7498
2023-04-18T11:18:11.350Z,70.1695
2023-04-18T11:19:12.224Z,69.8659
2023-04-18T11:20:13.203Z,69.7745
2023-04-18T11:21:14.110Z,69.1582
2023-04-18T11:22:14.998Z,69.4541
2023-04-18T11:23:15.938Z,69.1780
2023-04-18T11:24:16.887Z,69.7687
2023-04-18T11:25:17.827Z,69.4744
2023-04-18T11:26:18.697Z,69.6185
2023-04-18T11:27:19.604Z,70.1648
2023-04-18T11:28:20.498Z,70.6483
2023-04-18T11:29:21.399Z,71.0606
2023-04-18T11:30:22.316Z,70.7768
2023-04-18T11:31:23.327Z,70.5969
2023-04-18T11:32:24.580Z,70.6499
2023-04-18T11:33:25.519Z,70.3343
2023-04-18T11:34:26.479Z,70.0919
2023-04-18T11:35:27.420Z,70.1561
2023-04-18T11:36:28.349Z,70.3471
2023-04-18T11:37:29.263Z,70.1751
2023-04-18T11:38:30.176Z,69.4753
2023-04-18T11:39:31.096Z,69.2549
2023-04-18T11:40:32.035Z,69.6342
2023-04-18T11:41:32.919Z,70.1734
2023-04-18T11:42:33.817Z,70.3029
2023-04-18T11:43:34.749Z,67.3685
2023-04-18T11:44:36.798Z,66.8216
2023-04-18T11:45:37.815Z,67.5886
2023-04-18T11:46:38.938Z,67.4849
2023-04-18T11:47:39.909Z,67.1893
2023-04-18T11:48:40.788Z,66.4940
2023-04-18T11:49:41.660Z,61.9482
2023-04-18T11:50:42.526Z,61.4498
2023-04-18T11:51:43.359Z,61.5427
2023-04-18T11:52:44.211Z,61.5411
2023-04-18T11:53:45.089Z,62.2176
2023-04-18T11:54:45.897Z,62.3155
2023-04-18T11:55:46.745Z,59.5874
2023-04-18T11:56:47.535Z,58.2073
2023-04-18T11:57:48.375Z,57.5898
2023-04-18T11:58:49.278Z,60.3469
2023-04-18T11:59:50.128Z,58.1108
2023-04-18T12:00:50.970Z,62.3355
2023-04-18T12:01:53.638Z,64.1671
2023-04-18T12:02:52.550Z,64.5052
2023-04-18T12:03:54.047Z,64.7908
2023-04-18T12:04:56.414Z,64.4174
2023-04-18T12:05:55.706Z,63.2524
2023-04-18T12:06:56.760Z,62.0338
2023-04-18T12:07:57.614Z,62.3680
2023-04-18T12:08:58.461Z,60.6260
2023-04-18T12:09:59.253Z,60.9077
2023-04-18T12:11:00.125Z,56.8455
2023-04-18T12:12:00.980Z,59.2653
2023-04-18T12:13:01.755Z,60.9731
2023-04-18T12:14:04.507Z,61.2537